Orlando, FL

8:09 AM EST on February 21, 2017 (GMT -0500)
Windermere Wylde | | Change Station

Elev 154 ft 28.50 °N, 81.50 °W | Updated 10 seconds ago

Partly Cloudy
Partly Cloudy
60.4 °F
Feels Like 60.4 °F
N
0.0
Wind Variable Wind from SSE
Gusts 0.0 mph

Today
High -- | Low -- °F
--% Chance of Precip.
Yesterday
High -- | Low -- °F
Precip. -- in
Pressure 30.13 in
Visibility 10.0 miles
Clouds Mostly Cloudy 28000 ft
Dew Point 60.3 °F
Humidity 99%
Rainfall 0.00 in
Snow Depth Not available.
6:58 AM 6:20 PM
Waning Crescent, 25% visible
METAR KMCO 211253Z 08003KT 10SM BKN280 17/16 A3013 RMK AO2 SLP202 T01720156
Pressure 30.13 in
Visibility 10.0 miles
Clouds Mostly Cloudy 28000 ft
Dew Point 60.3 °F
Humidity 99%
Rainfall 0.00 in
Snow Depth Not available.
6:58 AM 6:20 PM
Waning Crescent, 25% visible
METAR KMCO 211253Z 08003KT 10SM BKN280 17/16 A3013 RMK AO2 SLP202 T01720156

Get Your Daily Forecast Email!

Thanks for signing up!

Be on the lookout for a verification email in your inbox.

You'll start receiving the daily forecast at 8 AM.

×

10-Day Weather Forecast

Almanac

Astronomy

Feb. 21, 2017 Rise Set
Actual Time
Civil Twilight
Nautical Twilight
Astronomical Twilight
Moon
Length of Visible Light
Length of Day
Tomorrow will be .
, % of the Moon is Illuminated

Today's Extremes

State Highs State Lows

Community

WunderPhotos

Upload Photos

1,962,540 photos uploaded!

WunderBlog® & News

Nearby

Air Quality

  Air Quality AQ Index Pollutant
Not available.

Snow Depth

Station Depth Elevation

Earthquake Activity

City Distance Mag. Time & Date
Minimum magnitude displayed is 2.5.

Coastal Water Temperatures

Place Temperature

Stations

Nearby Weather Stations

Station Location Temp. Windchill Dew Point Humidity Wind Precip. Elev Updated Type
                   

Watches & Warnings

There are currently no watches in effect.